Aérodrome :
LOGIN :

S'inscrire | Disclaimer

   EN    FR    IT 

 










Légende :    VFR   VFR Marginal   IFR   IFR Intensif   IFR Très Intensif
Visi : 
Plafond : 
>= 8 km
>= 3000ft
5 à 8 km
1000 à 3000 ft
1500m à 5 km
500 à 1000 ft
800 à 1500m
200 à 500 ft
< 800m
< 200 ft
Symboles :   Orages  Brouillard  Fortes neiges  Fortes précipitations  Vent > 20 kt
SIGMETs :   Divers  Orages  Givrage  Turbulence  Onde Orograph.  Cendres Volcan.







- Altitude de l'aérodrome : 291 ft
- Code IATA : ORY
- Voir les cartes d'approche


LFPO - Paris-Orly

DERNIER METAR :
  • 231600Z 11004KT 070V140 CAVOK 20/10 Q1020 NOSIG

METARs EXPIRÉS :
  • 231530Z 12004KT 070V190 9999 FEW040 BKN260 20/10 Q1021 NOSIG
  • 231500Z 00000KT 9999 FEW040 BKN220 20/10 Q1021 NOSIG
  • 231430Z 12004KT 080V160 9999 FEW040 BKN220 20/10 Q1021 NOSIG
  • 231400Z VRB03KT 9999 FEW038 BKN220 20/09 Q1021 NOSIG
  • 231330Z 17003KT 110V210 9999 FEW038 BKN260 20/10 Q1022 NOSIG

TAF TAF LFPO
Valide du 23 à 12h jusqu'au 24 à 18h UTC


231100Z 2312/2418 12005KT 9999 FEW035
BECMG 2314/2316 CAVOK
PROB30
TEMPO 2403/2407 VRB02KT 6000 MIFG
ATIS : +33 1 49 75 65 80
Pas de NOTAMs connus pour ce terrain.



MET'MAP, la Météo Aéronautique d'un coup d'oeil ! - Copyright ORBIFLY Décembre 2007 - Disclaimer

ORBIFLY MET'MAP TEAM :

Programmation & Développement : Alexandra Zaïnal
Conception & Développement : Baudouin d'Aumeries
Co-Programmation & Développement : Marc-Olivier Méhu
Soutien technique & logistique : Manuel Goepfert

Contact : metmap@orbifly.com




SOURCES & CREDITS :

   NOAA